createdAt,value
2018-07-03T00:00:02.020Z,15
2018-07-03T00:00:32.770Z,15
2018-07-03T00:01:02.814Z,15
2018-07-03T00:02:27.811Z,15
2018-07-03T00:03:26.925Z,15
2018-07-03T00:04:26.152Z,15
2018-07-03T00:05:25.480Z,14.9
2018-07-03T00:06:24.713Z,14.9
2018-07-03T00:07:24.039Z,14.9
2018-07-03T00:08:23.266Z,14.9
2018-07-03T00:09:22.490Z,14.9
2018-07-03T00:09:53.028Z,14.9
2018-07-03T00:10:23.666Z,14.9
2018-07-03T00:10:54.197Z,14.9
2018-07-03T00:12:20.655Z,14.8
2018-07-03T00:13:20.094Z,14.8
2018-07-03T00:14:19.316Z,14.8
2018-07-03T00:15:18.640Z,14.8
2018-07-03T00:16:17.971Z,14.7
2018-07-03T00:17:16.689Z,14.7
2018-07-03T00:18:16.523Z,14.7
2018-07-03T00:19:15.749Z,14.7
2018-07-03T00:20:15.083Z,14.7
2018-07-03T00:21:14.414Z,14.7
2018-07-03T00:22:13.240Z,14.7
2018-07-03T00:23:12.568Z,14.8
2018-07-03T00:24:11.995Z,14.9
2018-07-03T00:25:11.340Z,14.9
2018-07-03T00:26:10.671Z,14.9
2018-07-03T00:27:09.680Z,14.9
2018-07-03T00:28:09.115Z,14.9
2018-07-03T00:29:08.232Z,14.9
2018-07-03T00:30:07.744Z,14.9
2018-07-03T00:31:06.984Z,14.8
2018-07-03T00:32:06.305Z,14.8
2018-07-03T00:33:05.427Z,14.8
2018-07-03T00:34:04.642Z,14.8
2018-07-03T00:35:04.576Z,14.8
2018-07-03T00:36:03.414Z,14.7
2018-07-03T00:37:02.636Z,14.7
2018-07-03T00:38:01.967Z,14.7
2018-07-03T00:39:01.096Z,14.7
2018-07-03T00:40:00.553Z,14.7
2018-07-03T00:40:59.872Z,14.7
2018-07-03T00:41:59.211Z,14.7
2018-07-03T00:42:29.639Z,14.7
2018-07-03T00:43:00.291Z,14.6
2018-07-03T00:43:57.507Z,14.7
2018-07-03T00:44:57.333Z,14.7
2018-07-03T00:45:56.162Z,14.7
2018-07-03T00:46:55.893Z,14.7
2018-07-03T00:47:54.646Z,14.7
2018-07-03T00:48:54.478Z,14.7
2018-07-03T00:49:53.303Z,14.7
2018-07-03T00:50:53.027Z,14.7
2018-07-03T00:51:52.454Z,14.7
2018-07-03T00:52:51.073Z,14.7
2018-07-03T00:53:50.806Z,14.7
2018-07-03T00:54:50.126Z,14.7
2018-07-03T00:55:49.558Z,14.7
2018-07-03T00:56:48.384Z,14.7
2018-07-03T00:57:47.814Z,14.7
2018-07-03T00:58:47.245Z,14.7
2018-07-03T00:59:46.691Z,14.6
2018-07-03T01:00:45.617Z,14.6
2018-07-03T01:01:45.065Z,14.6
2018-07-03T01:02:44.388Z,14.6
2018-07-03T01:03:43.499Z,14.5
2018-07-03T01:04:42.724Z,14.4
2018-07-03T01:05:41.944Z,14.4
2018-07-03T01:06:41.157Z,14.4
2018-07-03T01:07:40.475Z,14.4
2018-07-03T01:08:40.201Z,14.3
2018-07-03T01:09:39.425Z,14.3
2018-07-03T01:10:38.744Z,14.2
2018-07-03T01:12:36.953Z,14.1
2018-07-03T01:13:36.275Z,14.1
2018-07-03T01:14:35.592Z,13.9
2018-07-03T01:15:34.815Z,13.9
2018-07-03T01:16:33.822Z,13.9
2018-07-03T01:17:33.543Z,13.8
2018-07-03T01:18:32.768Z,13.8
2018-07-03T01:19:31.883Z,13.8
2018-07-03T01:20:31.212Z,13.7
2018-07-03T01:21:30.648Z,13.7
2018-07-03T01:22:30.080Z,13.7
2018-07-03T01:23:29.296Z,13.7
2018-07-03T01:24:28.517Z,13.6
2018-07-03T01:25:27.744Z,13.5
2018-07-03T01:26:26.965Z,13.5
2018-07-03T01:27:26.285Z,13.5
2018-07-03T01:28:25.501Z,13.4
2018-07-03T01:29:24.831Z,13.4
2018-07-03T01:30:23.950Z,13.3
2018-07-03T01:30:54.605Z,13.3
2018-07-03T01:31:25.244Z,13.3
2018-07-03T01:32:22.452Z,13.2
2018-07-03T01:33:21.777Z,13.3
2018-07-03T01:34:20.995Z,13.2
2018-07-03T01:35:20.429Z,13.3
2018-07-03T01:36:19.885Z,13.2
2018-07-03T01:36:50.129Z,13.2
2018-07-03T01:37:20.555Z,13.2
2018-07-03T01:37:51.210Z,13.2
2018-07-03T01:38:21.855Z,13.2
2018-07-03T01:39:17.657Z,13.1
2018-07-03T01:40:17.085Z,13.1
2018-07-03T01:41:16.308Z,13.1
2018-07-03T01:42:15.753Z,13
2018-07-03T01:43:14.586Z,13
2018-07-03T01:44:13.805Z,13
2018-07-03T01:45:13.029Z,13
2018-07-03T01:46:12.361Z,13
2018-07-03T01:46:42.787Z,13
2018-07-03T01:47:13.430Z,12.9
2018-07-03T01:47:44.004Z,12.9
2018-07-03T01:48:14.644Z,12.9
2018-07-03T01:48:45.174Z,12.9
2018-07-03T01:50:09.767Z,12.8
2018-07-03T01:50:39.902Z,12.8
2018-07-03T01:51:10.437Z,12.8
2018-07-03T01:52:08.261Z,12.8
2018-07-03T01:53:07.591Z,12.8
2018-07-03T01:54:06.807Z,12.8
2018-07-03T01:55:06.135Z,12.8
2018-07-03T01:56:04.956Z,12.8
2018-07-03T01:57:04.784Z,12.8
2018-07-03T01:58:03.397Z,12.8
2018-07-03T01:59:03.017Z,12.7
2018-07-03T02:00:02.151Z,12.8
2018-07-03T02:01:01.595Z,12.7
2018-07-03T02:02:00.601Z,12.7
2018-07-03T02:03:00.035Z,12.7
2018-07-03T02:03:59.376Z,12.7
2018-07-03T02:04:58.701Z,12.8
2018-07-03T02:05:57.813Z,12.8
2018-07-03T02:06:57.144Z,12.8
2018-07-03T02:07:56.475Z,12.8
2018-07-03T02:08:55.584Z,12.8
2018-07-03T02:09:54.807Z,12.8
2018-07-03T02:10:54.145Z,12.8
2018-07-03T02:11:53.472Z,12.8
2018-07-03T02:12:52.583Z,12.8
2018-07-03T02:13:52.022Z,12.8
2018-07-03T02:14:51.364Z,12.8
2018-07-03T02:15:50.202Z,12.7
2018-07-03T02:16:49.638Z,12.7
2018-07-03T02:18:48.357Z,12.7
2018-07-03T02:19:47.581Z,12.7
2018-07-03T02:20:47.015Z,12.7
2018-07-03T02:21:45.733Z,12.6
2018-07-03T02:22:45.209Z,12.6
2018-07-03T02:23:44.638Z,12.6
2018-07-03T02:24:43.753Z,12.6
2018-07-03T02:25:42.973Z,12.6
2018-07-03T02:26:42.196Z,12.6
2018-07-03T02:27:41.521Z,12.7
2018-07-03T02:28:40.946Z,12.7
2018-07-03T02:29:39.763Z,12.8
2018-07-03T02:30:10.403Z,12.8
2018-07-03T02:30:41.054Z,12.8
2018-07-03T02:31:11.737Z,12.8
2018-07-03T02:32:37.846Z,12.8
2018-07-03T02:33:37.179Z,12.9
2018-07-03T02:34:36.505Z,12.9
2018-07-03T02:35:35.750Z,12.9
2018-07-03T02:36:34.772Z,12.8
2018-07-03T02:37:33.786Z,12.8
2018-07-03T02:38:33.032Z,12.8
2018-07-03T02:39:32.378Z,12.8
2018-07-03T02:40:31.605Z,12.7
2018-07-03T02:41:31.137Z,12.7
2018-07-03T02:42:30.470Z,12.7
2018-07-03T02:43:29.309Z,12.6
2018-07-03T02:44:28.758Z,12.6
2018-07-03T02:45:27.878Z,12.5
2018-07-03T02:46:26.996Z,12.5
2018-07-03T02:47:26.436Z,12.5
2018-07-03T02:48:25.561Z,12.5
2018-07-03T02:49:24.688Z,12.5
2018-07-03T02:50:24.421Z,12.4
2018-07-03T02:51:23.754Z,12.4
2018-07-03T02:52:22.575Z,12.3
2018-07-03T02:53:22.012Z,12.3
2018-07-03T02:54:21.219Z,12.3
2018-07-03T02:55:20.534Z,12.3
2018-07-03T02:56:19.840Z,12.2
2018-07-03T02:57:18.942Z,12.2
2018-07-03T02:58:18.371Z,12.2
2018-07-03T02:59:17.574Z,12.1
2018-07-03T03:00:16.680Z,12.1
2018-07-03T03:01:15.898Z,12.1
2018-07-03T03:02:15.218Z,12.1
2018-07-03T03:03:14.531Z,12.1
2018-07-03T03:04:13.732Z,12.1
2018-07-03T03:05:13.147Z,12.1
2018-07-03T03:06:12.469Z,12.1
2018-07-03T03:06:43.097Z,12.1
2018-07-03T03:07:13.613Z,12.1
2018-07-03T03:07:44.030Z,12.1
2018-07-03T03:09:10.036Z,12.1
2018-07-03T03:10:09.348Z,12
2018-07-03T03:11:08.556Z,12
2018-07-03T03:12:07.669Z,12
2018-07-03T03:13:06.990Z,12
2018-07-03T03:14:06.218Z,12
2018-07-03T03:15:05.532Z,12
2018-07-03T03:16:04.867Z,11.9
2018-07-03T03:17:03.472Z,11.9
2018-07-03T03:18:02.858Z,11.9
2018-07-03T03:19:02.358Z,11.9
2018-07-03T03:20:01.470Z,11.8
2018-07-03T03:21:00.802Z,11.8
2018-07-03T03:22:00.115Z,11.8
2018-07-03T03:22:59.325Z,11.8
2018-07-03T03:23:58.633Z,11.8
2018-07-03T03:24:57.831Z,11.8
2018-07-03T03:25:28.493Z,11.8
2018-07-03T03:26:56.595Z,11.8
2018-07-03T03:27:55.084Z,11.7
2018-07-03T03:28:55.011Z,11.7
2018-07-03T03:29:53.714Z,11.7
2018-07-03T03:30:53.031Z,11.7
2018-07-03T03:31:52.340Z,11.7
2018-07-03T03:32:51.541Z,11.6
2018-07-03T03:33:50.748Z,11.6
2018-07-03T03:34:50.373Z,11.6
2018-07-03T03:35:49.583Z,11.6
2018-07-03T03:36:48.796Z,11.6
2018-07-03T03:37:48.103Z,11.6
2018-07-03T03:38:47.404Z,11.6
2018-07-03T03:39:45.997Z,11.6
2018-07-03T03:40:45.706Z,11.6
2018-07-03T03:41:45.126Z,11.7
2018-07-03T03:42:43.824Z,11.7
2018-07-03T03:43:43.138Z,11.7
2018-07-03T03:44:42.439Z,11.7
2018-07-03T03:45:41.648Z,11.8
2018-07-03T03:46:40.847Z,11.8
2018-07-03T03:47:40.053Z,11.8
2018-07-03T03:48:39.360Z,11.8
2018-07-03T03:49:38.807Z,11.9
2018-07-03T03:50:08.724Z,11.9
2018-07-03T03:50:39.026Z,11.9
2018-07-03T03:51:37.338Z,11.9
2018-07-03T03:52:36.741Z,11.9
2018-07-03T03:53:35.333Z,11.9
2018-07-03T03:54:35.250Z,11.9
2018-07-03T03:55:33.966Z,12
2018-07-03T03:56:33.429Z,12
2018-07-03T03:57:32.650Z,12.1
2018-07-03T03:58:31.963Z,12.1
2018-07-03T04:00:30.159Z,12.1
2018-07-03T04:01:29.251Z,12.1
2018-07-03T04:02:28.454Z,12.1
2018-07-03T04:03:28.151Z,12.1
2018-07-03T04:04:27.033Z,12.1
2018-07-03T04:05:26.336Z,12.1
2018-07-03T04:06:25.564Z,12.1
2018-07-03T04:07:24.763Z,12.1
2018-07-03T04:08:23.960Z,12.1
2018-07-03T04:09:23.373Z,12.1
2018-07-03T04:10:22.677Z,12.1
2018-07-03T04:11:21.880Z,12.1
2018-07-03T04:12:21.084Z,12.2
2018-07-03T04:13:20.289Z,12.2
2018-07-03T04:14:19.722Z,12.2
2018-07-03T04:15:19.029Z,12.2
2018-07-03T04:16:18.328Z,12.2
2018-07-03T04:17:17.133Z,12.2
2018-07-03T04:18:16.537Z,12.3
2018-07-03T04:19:15.957Z,12.3
2018-07-03T04:20:14.866Z,12.3
2018-07-03T04:21:13.968Z,12.3
2018-07-03T04:22:13.167Z,12.3
2018-07-03T04:23:12.973Z,12.3
2018-07-03T04:24:11.895Z,12.3
2018-07-03T04:25:11.201Z,12.3
2018-07-03T04:26:10.299Z,12.4
2018-07-03T04:27:09.609Z,12.3
2018-07-03T04:28:08.705Z,12.4
2018-07-03T04:29:08.028Z,12.4
2018-07-03T04:30:07.119Z,12.5
2018-07-03T04:31:06.821Z,12.5
2018-07-03T04:32:06.019Z,12.5
2018-07-03T04:33:05.118Z,12.5
2018-07-03T04:35:03.209Z,12.5
2018-07-03T04:36:02.307Z,12.5
2018-07-03T04:37:02.120Z,12.5
2018-07-03T04:38:01.324Z,12.5
2018-07-03T04:39:00.641Z,12.5
2018-07-03T04:39:59.844Z,12.5
2018-07-03T04:40:59.146Z,12.6
2018-07-03T04:41:57.951Z,12.6
2018-07-03T04:42:57.271Z,12.6
2018-07-03T04:43:56.691Z,12.6
2018-07-03T04:44:26.709Z,12.6
2018-07-03T04:44:57.331Z,12.6
2018-07-03T04:45:27.734Z,12.6
2018-07-03T04:45:58.471Z,12.6
2018-07-03T04:46:54.634Z,12.7
2018-07-03T04:47:53.466Z,12.7
2018-07-03T04:48:52.462Z,12.8
2018-07-03T04:49:52.069Z,12.8
2018-07-03T04:50:51.285Z,12.9
2018-07-03T04:51:50.387Z,12.9
2018-07-03T04:52:49.693Z,12.9
2018-07-03T04:53:48.888Z,12.9
2018-07-03T04:54:48.093Z,13
2018-07-03T04:55:18.825Z,13
2018-07-03T04:55:48.944Z,13
2018-07-03T04:56:19.361Z,13
2018-07-03T04:56:49.987Z,13.1
2018-07-03T04:57:45.776Z,13.1
2018-07-03T04:58:44.973Z,13.1
2018-07-03T04:59:44.177Z,13.1
2018-07-03T05:00:43.883Z,13.2
2018-07-03T05:01:42.582Z,13.2
2018-07-03T05:02:42.176Z,13.2
2018-07-03T05:03:41.386Z,13.2
2018-07-03T05:04:40.800Z,13.2
2018-07-03T05:05:40.103Z,13.3
2018-07-03T05:06:39.006Z,13.3
2018-07-03T05:07:38.419Z,13.3
2018-07-03T05:08:37.508Z,13.4
2018-07-03T05:09:36.499Z,13.5
2018-07-03T05:10:36.310Z,13.5
2018-07-03T05:11:35.122Z,13.6
2018-07-03T05:12:34.509Z,13.6
2018-07-03T05:13:33.661Z,13.7
2018-07-03T05:14:32.981Z,13.8
2018-07-03T05:15:32.290Z,14
2018-07-03T05:16:31.601Z,14
2018-07-03T05:17:31.303Z,14.1
2018-07-03T05:18:29.961Z,14.1
2018-07-03T05:19:29.263Z,14.2
2018-07-03T05:20:28.474Z,14.2
2018-07-03T05:21:27.567Z,14.4
2018-07-03T05:22:27.378Z,14.5
2018-07-03T05:23:25.756Z,14.8
2018-07-03T05:23:56.378Z,14.8
2018-07-03T05:24:26.897Z,14.8
2018-07-03T05:25:24.810Z,14.9
2018-07-03T05:25:54.938Z,14.9
2018-07-03T05:26:25.662Z,14.9
2018-07-03T05:26:56.090Z,14.9
2018-07-03T05:27:26.609Z,14.9
2018-07-03T05:27:57.118Z,14.9
2018-07-03T05:29:21.999Z,15
2018-07-03T05:30:20.806Z,15
2018-07-03T05:31:20.249Z,15
2018-07-03T05:32:19.561Z,15
2018-07-03T05:33:18.872Z,15.1
2018-07-03T05:34:18.171Z,15.1
2018-07-03T05:35:17.492Z,15.1
2018-07-03T05:35:47.498Z,15.1
2018-07-03T05:36:17.905Z,15.1
2018-07-03T05:36:48.417Z,15.1
2018-07-03T05:37:19.428Z,15.2
2018-07-03T05:37:49.626Z,15.2
2018-07-03T05:39:14.497Z,15.3
2018-07-03T05:40:13.800Z,15.3
2018-07-03T05:41:13.109Z,15.4
2018-07-03T05:42:12.030Z,15.4
2018-07-03T05:44:10.520Z,15.4
2018-07-03T05:45:09.724Z,15.5
2018-07-03T05:46:09.437Z,15.5
2018-07-03T05:48:07.525Z,15.7
2018-07-03T05:49:06.932Z,15.7
2018-07-03T05:50:06.143Z,15.8
2018-07-03T05:51:05.345Z,15.9
2018-07-03T05:52:04.346Z,16
2018-07-03T05:53:04.054Z,16
2018-07-03T05:54:03.275Z,16
2018-07-03T05:55:02.287Z,16.1
2018-07-03T05:56:01.782Z,16.1
2018-07-03T05:57:01.022Z,16.2
2018-07-03T05:58:00.325Z,16.3
2018-07-03T05:58:59.642Z,16.3
2018-07-03T05:59:58.944Z,16.4
2018-07-03T06:00:58.362Z,16.4
2018-07-03T06:01:57.660Z,16.4
2018-07-03T06:02:57.085Z,16.4
2018-07-03T06:03:56.282Z,16.4
2018-07-03T06:04:55.103Z,16.5
2018-07-03T06:05:54.558Z,16.5
2018-07-03T06:06:53.754Z,16.6
2018-07-03T06:07:53.056Z,16.6
2018-07-03T06:08:52.258Z,16.7
2018-07-03T06:10:50.975Z,16.8
2018-07-03T06:11:50.401Z,16.8
2018-07-03T06:12:49.774Z,16.9
2018-07-03T06:13:48.985Z,17
2018-07-03T06:14:48.261Z,17
2018-07-03T06:15:47.479Z,17
2018-07-03T06:16:46.898Z,17
2018-07-03T06:17:17.125Z,17
2018-07-03T06:18:45.625Z,17.2
2018-07-03T06:19:44.427Z,17.2
2018-07-03T06:20:44.238Z,17.2
2018-07-03T06:21:43.045Z,17.3
2018-07-03T06:22:42.655Z,17.4
2018-07-03T06:24:40.987Z,17.4
2018-07-03T06:25:40.293Z,17.4
2018-07-03T06:26:39.501Z,17.5
2018-07-03T06:27:38.595Z,17.5
2018-07-03T06:28:38.401Z,17.5
2018-07-03T06:29:37.603Z,17.5
2018-07-03T06:30:37.016Z,17.5
2018-07-03T06:31:36.421Z,17.5
2018-07-03T06:32:34.898Z,17.5
2018-07-03T06:33:06.026Z,17.5
2018-07-03T06:33:36.437Z,17.5
2018-07-03T06:34:34.247Z,17.5
2018-07-03T06:35:32.946Z,17.5
2018-07-03T06:36:32.872Z,17.5
2018-07-03T06:37:32.041Z,17.7
2018-07-03T06:38:31.373Z,17.8
2018-07-03T06:39:30.588Z,17.9
2018-07-03T06:40:29.786Z,17.9
2018-07-03T06:41:29.117Z,18
2018-07-03T06:42:28.425Z,18
2018-07-03T06:43:27.629Z,18.1
2018-07-03T06:44:26.993Z,18.2
2018-07-03T06:45:26.206Z,18.2
2018-07-03T06:46:25.513Z,18.3
2018-07-03T06:47:25.609Z,18.3
2018-07-03T06:48:24.487Z,18.3
2018-07-03T06:49:23.715Z,18.3
2018-07-03T06:50:23.014Z,18.4
2018-07-03T06:51:22.220Z,18.4
2018-07-03T06:52:21.648Z,18.4
2018-07-03T06:53:20.745Z,18.4
2018-07-03T06:54:20.161Z,18.4
2018-07-03T06:55:19.252Z,18.5
2018-07-03T06:56:18.351Z,18.5
2018-07-03T06:57:18.073Z,18.4
2018-07-03T06:58:17.485Z,18.4
2018-07-03T06:59:16.905Z,18.5
2018-07-03T07:00:16.212Z,18.5
2018-07-03T07:01:15.521Z,18.5
2018-07-03T07:02:14.620Z,18.7
2018-07-03T07:02:45.254Z,18.7
2018-07-03T07:03:15.765Z,18.7
2018-07-03T07:03:46.492Z,18.7
2018-07-03T07:04:16.612Z,18.7
2018-07-03T07:04:47.343Z,18.7
2018-07-03T07:05:17.852Z,18.7
2018-07-03T07:06:12.020Z,18.8
2018-07-03T07:07:11.343Z,18.8
2018-07-03T07:08:10.547Z,18.8
2018-07-03T07:09:11.122Z,18.8
2018-07-03T07:10:09.585Z,18.9
2018-07-03T07:11:08.999Z,18.9
2018-07-03T07:12:07.915Z,19
2018-07-03T07:12:37.815Z,19
2018-07-03T07:13:08.546Z,19
2018-07-03T07:13:38.601Z,19
2018-07-03T07:14:09.228Z,19
2018-07-03T07:14:39.960Z,19
2018-07-03T07:15:10.305Z,19
2018-07-03T07:15:40.532Z,19
2018-07-03T07:16:10.647Z,19.1
2018-07-03T07:16:41.374Z,19.1
2018-07-03T07:18:03.844Z,19.2
2018-07-03T07:19:02.944Z,19.2
2018-07-03T07:20:02.439Z,19.3
2018-07-03T07:21:02.041Z,19.3
2018-07-03T07:22:01.359Z,19.3
2018-07-03T07:23:00.607Z,19.3
2018-07-03T07:23:59.916Z,19.4
2018-07-03T07:24:59.240Z,19.4
2018-07-03T07:25:58.336Z,19.4
2018-07-03T07:26:58.040Z,19.4
2018-07-03T07:27:28.662Z,19.4
2018-07-03T07:28:56.759Z,19.4
2018-07-03T07:29:55.970Z,19.3
2018-07-03T07:30:55.278Z,19.4
2018-07-03T07:31:54.583Z,19.4
2018-07-03T07:32:54.393Z,19.5
2018-07-03T07:33:53.700Z,19.5
2018-07-03T07:34:52.905Z,19.6
2018-07-03T07:35:52.449Z,19.6
2018-07-03T07:36:51.665Z,19.7
2018-07-03T07:37:50.863Z,19.8
2018-07-03T07:38:50.179Z,19.8
2018-07-03T07:39:49.493Z,19.9
2018-07-03T07:40:48.597Z,19.9
2018-07-03T07:41:48.405Z,19.9
2018-07-03T07:42:48.128Z,20
2018-07-03T07:43:46.799Z,20
2018-07-03T07:44:46.610Z,20.1
2018-07-03T07:45:45.602Z,20.1
2018-07-03T07:46:44.916Z,20.1
2018-07-03T07:47:44.331Z,20.1
2018-07-03T07:48:43.637Z,20.1
2018-07-03T07:49:43.509Z,20.2
2018-07-03T07:50:42.101Z,20.2
2018-07-03T07:52:41.089Z,20.2
2018-07-03T07:53:40.792Z,20.3
2018-07-03T07:54:40.109Z,20.3
2018-07-03T07:55:10.338Z,20.3
2018-07-03T07:55:40.560Z,20.4
2018-07-03T07:56:11.072Z,20.4
2018-07-03T07:56:41.703Z,20.5
2018-07-03T07:57:12.102Z,20.5
2018-07-03T07:58:37.597Z,20.6
2018-07-03T07:59:36.919Z,20.6
2018-07-03T08:00:36.235Z,20.6
2018-07-03T08:01:35.651Z,20.6
2018-07-03T08:02:34.956Z,20.7
2018-07-03T08:03:34.163Z,20.8
2018-07-03T08:04:33.875Z,20.9
2018-07-03T08:05:33.189Z,20.9
2018-07-03T08:06:32.398Z,20.9
2018-07-03T08:08:31.420Z,20.9
2018-07-03T08:09:30.839Z,21
2018-07-03T08:10:29.935Z,20.9
2018-07-03T08:11:29.135Z,20.9
2018-07-03T08:12:28.954Z,20.9
2018-07-03T08:13:28.048Z,20.9
2018-07-03T08:14:27.669Z,20.9
2018-07-03T08:15:26.986Z,21
2018-07-03T08:16:26.293Z,21
2018-07-03T08:17:25.603Z,21
2018-07-03T08:19:24.701Z,21
2018-07-03T08:20:24.008Z,21.1
2018-07-03T08:21:23.217Z,21
2018-07-03T08:22:22.532Z,21.1
2018-07-03T08:23:21.844Z,21.1
2018-07-03T08:24:21.439Z,21.1
2018-07-03T08:25:20.543Z,21.3
2018-07-03T08:26:20.036Z,21.4
2018-07-03T08:27:19.892Z,21.4
2018-07-03T08:28:19.096Z,21.3
2018-07-03T08:29:18.420Z,21.4
2018-07-03T08:30:17.831Z,21.5
2018-07-03T08:31:17.134Z,21.4
2018-07-03T08:32:16.675Z,21.5
2018-07-03T08:33:16.000Z,21.7
2018-07-03T08:34:15.341Z,21.8
2018-07-03T08:35:14.439Z,21.8
2018-07-03T08:36:14.258Z,21.7
2018-07-03T08:37:13.469Z,21.7
2018-07-03T08:38:12.780Z,21.8
2018-07-03T08:39:12.481Z,21.8
2018-07-03T08:40:11.578Z,21.8
2018-07-03T08:41:11.388Z,21.8
2018-07-03T08:42:10.492Z,21.9
2018-07-03T08:43:10.306Z,21.9
2018-07-03T08:44:09.506Z,21.8
2018-07-03T08:45:08.501Z,21.7
2018-07-03T08:46:08.200Z,21.6
2018-07-03T08:47:07.623Z,21.6
2018-07-03T08:48:06.924Z,21.6
2018-07-03T08:49:06.849Z,21.5
2018-07-03T08:50:06.057Z,21.5
2018-07-03T08:51:05.370Z,21.4
2018-07-03T08:52:04.823Z,21.5
2018-07-03T08:53:04.241Z,21.7
2018-07-03T08:53:34.249Z,21.7
2018-07-03T08:54:04.872Z,21.8
2018-07-03T08:54:35.280Z,21.8
2018-07-03T08:55:06.250Z,22
2018-07-03T08:55:36.375Z,22
2018-07-03T08:57:01.984Z,22.2
2018-07-03T08:59:00.788Z,22.2
2018-07-03T09:00:00.119Z,22.2
2018-07-03T09:00:59.305Z,22.1
2018-07-03T09:01:59.027Z,22.1
2018-07-03T09:02:58.118Z,22.1
2018-07-03T09:03:57.835Z,22.1
2018-07-03T09:04:57.165Z,22.1
2018-07-03T09:05:56.392Z,22
2018-07-03T09:06:27.122Z,22
2018-07-03T09:07:55.629Z,22
2018-07-03T09:08:54.931Z,22
2018-07-03T09:09:54.433Z,22
2018-07-03T09:10:53.636Z,22.1
2018-07-03T09:11:53.555Z,22.1
2018-07-03T09:13:52.252Z,22.3
2018-07-03T09:14:51.451Z,22.3
2018-07-03T09:15:51.154Z,22.3
2018-07-03T09:16:50.466Z,22.4
2018-07-03T09:17:50.106Z,22.4
2018-07-03T09:18:49.396Z,22.4
2018-07-03T09:19:48.594Z,22.4
2018-07-03T09:20:48.404Z,22.4
2018-07-03T09:21:47.598Z,22.4
2018-07-03T09:22:46.694Z,22.3
2018-07-03T09:23:46.622Z,22.3
2018-07-03T09:24:45.823Z,22.2
2018-07-03T09:25:45.133Z,22.2
2018-07-03T09:26:44.833Z,22.3
2018-07-03T09:27:44.254Z,22.3
2018-07-03T09:28:43.345Z,22.4
2018-07-03T09:29:43.277Z,22.4
2018-07-03T09:30:42.659Z,22.4
2018-07-03T09:31:42.142Z,22.5
2018-07-03T09:32:41.454Z,22.6
2018-07-03T09:33:40.872Z,22.6
2018-07-03T09:34:40.178Z,22.7
2018-07-03T09:35:39.987Z,22.6
2018-07-03T09:36:39.198Z,22.6
2018-07-03T09:37:38.503Z,22.7
2018-07-03T09:39:37.593Z,22.7
2018-07-03T09:40:36.683Z,22.7
2018-07-03T09:41:36.490Z,22.7
2018-07-03T09:42:36.084Z,22.7
2018-07-03T09:43:35.400Z,22.6
2018-07-03T09:44:34.604Z,22.6
2018-07-03T09:45:34.423Z,22.5
2018-07-03T09:46:33.855Z,22.5
2018-07-03T09:47:33.276Z,22.5
2018-07-03T09:48:32.599Z,22.4
2018-07-03T09:49:02.895Z,22.4
2018-07-03T09:49:33.563Z,22.4
2018-07-03T09:50:31.754Z,22.4
2018-07-03T09:51:30.963Z,22.4
2018-07-03T09:52:30.273Z,22.4
2018-07-03T09:53:29.869Z,22.5
2018-07-03T09:54:29.176Z,22.6
2018-07-03T09:55:28.774Z,22.6
2018-07-03T09:56:28.094Z,22.7
2018-07-03T09:57:27.913Z,22.7
2018-07-03T09:58:27.122Z,22.8
2018-07-03T09:59:26.542Z,22.9
2018-07-03T10:00:26.047Z,22.9
2018-07-03T10:01:25.156Z,23
2018-07-03T10:02:24.864Z,23.2
2018-07-03T10:03:24.064Z,23.3
2018-07-03T10:04:24.045Z,23.3
2018-07-03T10:05:23.462Z,23.3
2018-07-03T10:06:22.885Z,23.3
2018-07-03T10:07:22.088Z,23.2
2018-07-03T10:08:22.006Z,23.3
2018-07-03T10:08:51.917Z,23.3
2018-07-03T10:10:20.435Z,23.3
2018-07-03T10:11:20.247Z,23.3
2018-07-03T10:12:19.343Z,23.2
2018-07-03T10:13:19.153Z,23.2
2018-07-03T10:14:18.461Z,23.2
2018-07-03T10:15:17.775Z,23.2
2018-07-03T10:16:17.533Z,23.2
2018-07-03T10:17:16.850Z,23.1
2018-07-03T10:18:16.265Z,23.1
2018-07-03T10:19:15.871Z,23.1
2018-07-03T10:20:14.859Z,23.2
2018-07-03T10:21:14.784Z,23.3
2018-07-03T10:22:13.983Z,23.4
2018-07-03T10:24:13.293Z,23.5
2018-07-03T10:25:12.737Z,23.5
2018-07-03T10:26:12.158Z,23.5
2018-07-03T10:27:11.473Z,23.5
2018-07-03T10:28:11.391Z,23.5
2018-07-03T10:29:10.486Z,23.5
2018-07-03T10:30:09.368Z,23.6
2018-07-03T10:31:09.794Z,23.5
2018-07-03T10:32:09.096Z,23.4
2018-07-03T10:33:08.514Z,23.4
2018-07-03T10:34:07.721Z,23.4
2018-07-03T10:35:07.315Z,23.5
2018-07-03T10:36:07.250Z,23.5
2018-07-03T10:37:06.343Z,23.4
2018-07-03T10:38:05.664Z,23.5
2018-07-03T10:39:05.373Z,23.5
2018-07-03T10:40:04.473Z,23.5
2018-07-03T10:41:04.481Z,23.6
2018-07-03T10:42:03.727Z,23.7
2018-07-03T10:43:02.939Z,23.8
2018-07-03T10:44:02.546Z,23.9
2018-07-03T10:45:02.262Z,23.9
2018-07-03T10:46:01.567Z,23.9
2018-07-03T10:46:32.197Z,23.9
2018-07-03T10:47:02.834Z,23.9
2018-07-03T10:47:33.455Z,23.9
2018-07-03T10:49:00.231Z,23.9
2018-07-03T10:49:59.533Z,24
2018-07-03T10:50:59.338Z,24
2018-07-03T10:51:58.756Z,23.9
2018-07-03T10:52:58.067Z,24
2018-07-03T10:53:58.002Z,24.1
2018-07-03T10:54:57.317Z,24
2018-07-03T10:55:56.621Z,24
2018-07-03T10:56:56.036Z,24.1
2018-07-03T10:57:55.958Z,24
2018-07-03T10:58:55.045Z,24
2018-07-03T10:59:54.653Z,24
2018-07-03T11:00:54.352Z,24
2018-07-03T11:01:53.652Z,24.1
2018-07-03T11:02:53.250Z,24.3
2018-07-03T11:03:52.686Z,24.4
2018-07-03T11:04:52.387Z,24.4
2018-07-03T11:05:51.806Z,24.5
2018-07-03T11:06:21.925Z,24.5
2018-07-03T11:07:50.968Z,24.7
2018-07-03T11:08:21.482Z,24.7
2018-07-03T11:09:49.589Z,24.7
2018-07-03T11:10:49.402Z,24.7
2018-07-03T11:11:48.833Z,24.8
2018-07-03T11:12:48.152Z,24.8
2018-07-03T11:13:48.380Z,24.9
2018-07-03T11:14:47.306Z,25
2018-07-03T11:15:46.405Z,25
2018-07-03T11:16:46.237Z,24.9
2018-07-03T11:17:45.956Z,25
2018-07-03T11:18:45.265Z,24.9
2018-07-03T11:19:46.219Z,24.9
2018-07-03T11:20:44.228Z,24.9
2018-07-03T11:21:44.044Z,25.1
2018-07-03T11:22:43.466Z,25.1
2018-07-03T11:23:42.881Z,25.2
2018-07-03T11:24:42.717Z,25.4
2018-07-03T11:25:42.016Z,25.5
2018-07-03T11:26:41.940Z,25.5
2018-07-03T11:27:41.043Z,25.6
2018-07-03T11:28:40.645Z,25.6
2018-07-03T11:29:40.066Z,25.7
2018-07-03T11:30:39.659Z,25.5
2018-07-03T11:31:39.578Z,25.3
2018-07-03T11:32:38.997Z,25.4
2018-07-03T11:33:38.433Z,25.4
2018-07-03T11:34:37.741Z,25.5
2018-07-03T11:35:37.548Z,25.3
2018-07-03T11:36:36.859Z,25.4
2018-07-03T11:37:36.533Z,25.4
2018-07-03T11:38:35.636Z,25.5
2018-07-03T11:39:35.136Z,25.5
2018-07-03T11:40:34.842Z,25.6
2018-07-03T11:41:34.760Z,25.7
2018-07-03T11:42:33.851Z,25.8
2018-07-03T11:43:33.656Z,26
2018-07-03T11:44:33.365Z,26
2018-07-03T11:45:32.860Z,25.8
2018-07-03T11:46:32.545Z,25.8
2018-07-03T11:47:31.757Z,26
2018-07-03T11:48:31.353Z,26.1
2018-07-03T11:49:31.070Z,26.2
2018-07-03T11:50:31.000Z,26.4
2018-07-03T11:51:00.805Z,26.4
2018-07-03T11:51:31.531Z,26.5
2018-07-03T11:52:01.658Z,26.5
2018-07-03T11:53:30.007Z,26.8
2018-07-03T11:54:29.177Z,26.9
2018-07-03T11:55:28.483Z,27
2018-07-03T11:56:28.188Z,26.8
2018-07-03T11:57:27.901Z,26.9
2018-07-03T11:58:27.206Z,27
2018-07-03T11:59:26.700Z,27.1
2018-07-03T12:00:26.193Z,27
2018-07-03T12:01:26.369Z,27
2018-07-03T12:01:56.657Z,27
2018-07-03T12:03:25.268Z,27.3
2018-07-03T12:04:25.193Z,27.4
2018-07-03T12:05:24.497Z,27.4
2018-07-03T12:06:23.829Z,27.4
2018-07-03T12:07:23.431Z,27.3
2018-07-03T12:08:23.250Z,27.3
2018-07-03T12:09:22.960Z,27.1
2018-07-03T12:10:22.057Z,27
2018-07-03T12:11:22.171Z,26.8
2018-07-03T12:12:21.376Z,26.9
2018-07-03T12:13:21.083Z,26.9
2018-07-03T12:14:20.996Z,27.1
2018-07-03T12:15:20.199Z,27.1
2018-07-03T12:16:20.015Z,27.2
2018-07-03T12:17:19.835Z,27.3
2018-07-03T12:18:18.714Z,27.4
2018-07-03T12:19:19.145Z,27.5
2018-07-03T12:20:18.352Z,27.5
2018-07-03T12:21:17.951Z,27.6
2018-07-03T12:22:17.872Z,27.6
2018-07-03T12:23:17.185Z,27.5
2018-07-03T12:24:17.106Z,27.4
2018-07-03T12:25:16.533Z,27.5
2018-07-03T12:26:16.237Z,27.7
2018-07-03T12:27:15.660Z,27.8
2018-07-03T12:28:15.481Z,28
2018-07-03T12:29:15.901Z,28
2018-07-03T12:30:14.784Z,28
2018-07-03T12:31:14.389Z,28
2018-07-03T12:32:13.589Z,28.2
2018-07-03T12:33:13.285Z,28.3
2018-07-03T12:34:13.107Z,28.2
2018-07-03T12:35:12.921Z,28
2018-07-03T12:36:12.415Z,28.1
2018-07-03T12:37:12.229Z,28.2
2018-07-03T12:38:12.047Z,28.2
2018-07-03T12:39:11.359Z,28.3
2018-07-03T12:40:11.275Z,28.2
2018-07-03T12:41:10.607Z,27.9
2018-07-03T12:42:10.520Z,27.8
2018-07-03T12:43:09.619Z,27.9
2018-07-03T12:44:10.419Z,28
2018-07-03T12:45:09.180Z,27.7
2018-07-03T12:46:08.805Z,27.5
2018-07-03T12:47:08.505Z,27.6
2018-07-03T12:48:08.212Z,27.6
2018-07-03T12:49:07.922Z,27.5
2018-07-03T12:50:07.039Z,27.6
2018-07-03T12:50:37.653Z,27.6
2018-07-03T12:51:08.175Z,27.7
2018-07-03T12:51:38.900Z,27.7
2018-07-03T12:53:06.276Z,27.7
2018-07-03T12:54:05.979Z,27.8